createdAt,value
2023-05-10T00:00:43.245Z,13.05
2023-05-10T00:03:46.292Z,13.02
2023-05-10T00:06:48.997Z,12.89
2023-05-10T00:09:51.856Z,12.91
2023-05-10T00:12:54.395Z,12.82
2023-05-10T00:15:57.284Z,12.77
2023-05-10T00:18:59.821Z,12.62
2023-05-10T00:22:02.643Z,12.64
2023-05-10T00:25:05.701Z,12.60
2023-05-10T00:28:08.666Z,12.58
2023-05-10T00:31:13.917Z,12.55
2023-05-10T00:34:16.803Z,12.56
2023-05-10T00:37:19.314Z,12.48
2023-05-10T00:40:22.579Z,12.47
2023-05-10T00:43:25.481Z,12.43
2023-05-10T00:46:29.135Z,12.38
2023-05-10T00:49:32.256Z,12.39
2023-05-10T00:52:35.249Z,12.36
2023-05-10T00:55:38.322Z,12.34
2023-05-10T00:58:41.224Z,12.34
2023-05-10T01:01:47.555Z,12.32
2023-05-10T01:04:50.744Z,12.28
2023-05-10T01:07:53.698Z,12.27
2023-05-10T01:10:56.576Z,12.25
2023-05-10T01:13:59.310Z,12.22
2023-05-10T01:17:03.105Z,12.20
2023-05-10T01:20:07.674Z,12.22
2023-05-10T01:23:30.619Z,12.24
2023-05-10T01:26:42.140Z,12.23
2023-05-10T01:30:14.153Z,12.23
2023-05-10T01:33:24.512Z,12.20
2023-05-10T01:36:37.904Z,12.22
2023-05-10T01:39:58.575Z,12.25
2023-05-10T01:43:04.041Z,12.32
2023-05-10T01:46:11.915Z,12.35
2023-05-10T01:49:24.534Z,12.45
2023-05-10T01:52:29.604Z,12.43
2023-05-10T01:55:34.700Z,12.49
2023-05-10T01:58:37.747Z,12.53
2023-05-10T02:01:41.230Z,12.56
2023-05-10T02:04:45.442Z,12.58
2023-05-10T02:07:48.447Z,12.59
2023-05-10T02:10:53.604Z,12.64
2023-05-10T02:13:56.388Z,12.63
2023-05-10T02:17:01.556Z,12.69
2023-05-10T02:20:06.131Z,12.67
2023-05-10T02:23:09.716Z,12.71
2023-05-10T02:26:12.996Z,12.80
2023-05-10T02:29:16.406Z,12.77
2023-05-10T02:32:19.921Z,12.80
2023-05-10T02:35:23.582Z,12.77
2023-05-10T02:38:26.923Z,12.85
2023-05-10T02:41:32.332Z,12.77
2023-05-10T02:44:35.924Z,12.78
2023-05-10T02:47:39.100Z,12.79
2023-05-10T02:50:47.395Z,12.86
2023-05-10T02:53:51.036Z,12.82
2023-05-10T02:56:57.651Z,12.77
2023-05-10T03:00:01.998Z,12.83
2023-05-10T03:03:04.644Z,12.77
2023-05-10T03:06:07.742Z,12.80
2023-05-10T03:09:12.103Z,12.84
2023-05-10T03:12:33.186Z,12.77
2023-05-10T03:15:49.531Z,12.80
2023-05-10T03:18:56.643Z,12.77
2023-05-10T03:22:05.421Z,12.76
2023-05-10T03:25:10.189Z,12.77
2023-05-10T03:28:13.758Z,12.73
2023-05-10T03:31:16.841Z,12.67
2023-05-10T03:34:24.933Z,12.66
2023-05-10T03:37:28.197Z,12.61
2023-05-10T03:40:32.814Z,12.57
2023-05-10T03:43:35.715Z,12.57
2023-05-10T03:46:38.232Z,12.56
2023-05-10T03:49:41.601Z,12.60
2023-05-10T03:52:44.616Z,12.54
2023-05-10T03:55:47.569Z,12.53
2023-05-10T03:58:50.044Z,12.53
2023-05-10T04:01:53.645Z,12.53
2023-05-10T04:04:56.565Z,12.50
2023-05-10T04:07:59.115Z,12.49
2023-05-10T04:11:09.961Z,12.51
2023-05-10T04:14:12.447Z,12.52
2023-05-10T04:17:15.390Z,12.49
2023-05-10T04:20:18.478Z,12.48
2023-05-10T04:23:21.487Z,12.50
2023-05-10T04:26:24.041Z,12.48
2023-05-10T04:29:27.670Z,12.45
2023-05-10T04:32:30.375Z,12.41
2023-05-10T04:35:33.330Z,12.40
2023-05-10T04:38:35.957Z,12.45
2023-05-10T04:41:39.217Z,12.37
2023-05-10T04:44:41.928Z,12.40
2023-05-10T04:47:44.756Z,12.43
2023-05-10T04:50:47.334Z,12.47
2023-05-10T04:54:01.652Z,12.47
2023-05-10T04:57:08.266Z,12.48
2023-05-10T05:00:11.734Z,12.48
2023-05-10T05:03:14.343Z,12.52
2023-05-10T05:06:17.177Z,12.51
2023-05-10T05:09:19.716Z,12.50
2023-05-10T05:12:22.536Z,12.51
2023-05-10T05:15:25.073Z,12.49
2023-05-10T05:18:28.006Z,12.52
2023-05-10T05:21:30.573Z,12.58
2023-05-10T05:24:37.521Z,12.60
2023-05-10T05:27:40.050Z,12.67
2023-05-10T05:30:42.887Z,12.80
2023-05-10T05:33:45.521Z,12.85
2023-05-10T05:36:48.817Z,13.08
2023-05-10T05:39:51.304Z,13.15
2023-05-10T05:42:54.230Z,13.26
2023-05-10T05:45:59.087Z,13.33
2023-05-10T05:49:02.339Z,13.48
2023-05-10T05:52:05.522Z,13.57
2023-05-10T05:55:08.480Z,13.66
2023-05-10T05:58:10.938Z,13.76
2023-05-10T06:01:13.760Z,13.85
2023-05-10T06:04:17.151Z,13.95
2023-05-10T06:07:19.756Z,14.11
2023-05-10T06:10:23.807Z,14.29
2023-05-10T06:13:29.896Z,14.32
2023-05-10T06:16:32.825Z,14.43
2023-05-10T06:19:35.335Z,14.58
2023-05-10T06:22:38.185Z,14.76
2023-05-10T06:25:41.217Z,14.83
2023-05-10T06:28:44.084Z,14.88
2023-05-10T06:31:46.701Z,15.04
2023-05-10T06:34:49.660Z,15.17
2023-05-10T06:37:52.476Z,15.32
2023-05-10T06:40:55.376Z,15.40
2023-05-10T06:43:57.859Z,15.53
2023-05-10T06:47:00.692Z,15.66
2023-05-10T06:50:03.307Z,15.89
2023-05-10T06:53:06.481Z,16.01
2023-05-10T06:56:28.853Z,16.14
2023-05-10T06:59:32.112Z,16.22
2023-05-10T07:02:34.783Z,16.25
2023-05-10T07:05:37.801Z,16.27
2023-05-10T07:08:40.602Z,16.51
2023-05-10T07:11:43.455Z,16.62
2023-05-10T07:14:46.372Z,16.75
2023-05-10T07:17:49.216Z,16.87
2023-05-10T07:20:52.341Z,16.85
2023-05-10T07:23:55.573Z,16.81
2023-05-10T07:26:58.109Z,16.82
2023-05-10T07:30:01.632Z,16.87
2023-05-10T07:33:04.240Z,17.00
2023-05-10T07:36:07.392Z,17.13
2023-05-10T07:39:11.431Z,17.26
2023-05-10T07:42:14.321Z,17.28
2023-05-10T07:45:17.188Z,17.29
2023-05-10T07:48:20.148Z,17.34
2023-05-10T07:51:22.806Z,17.28
2023-05-10T07:54:25.718Z,17.34
2023-05-10T07:57:28.243Z,17.46
2023-05-10T08:00:31.074Z,17.54
2023-05-10T08:03:34.060Z,17.57
2023-05-10T08:06:36.595Z,17.69
2023-05-10T08:09:39.429Z,17.58
2023-05-10T08:12:41.982Z,17.64
2023-05-10T08:15:44.803Z,17.83
2023-05-10T08:18:48.213Z,17.77
2023-05-10T08:21:51.186Z,17.87
2023-05-10T08:24:53.646Z,17.97
2023-05-10T08:27:56.486Z,18.24
2023-05-10T08:30:59.013Z,18.22
2023-05-10T08:34:01.851Z,18.13
2023-05-10T08:37:04.716Z,18.09
2023-05-10T08:40:08.084Z,18.02
2023-05-10T08:43:13.479Z,18.12
2023-05-10T08:46:20.720Z,18.25
2023-05-10T08:49:24.024Z,18.32
2023-05-10T08:52:27.665Z,18.54
2023-05-10T08:55:31.122Z,18.49
2023-05-10T08:58:34.025Z,18.46
2023-05-10T09:01:37.291Z,18.36
2023-05-10T09:04:40.173Z,18.29
2023-05-10T09:07:43.029Z,18.32
2023-05-10T09:10:48.265Z,18.29
2023-05-10T09:13:52.531Z,18.41
2023-05-10T09:16:56.305Z,18.52
2023-05-10T09:20:00.558Z,18.47
2023-05-10T09:23:03.362Z,18.61
2023-05-10T09:26:06.518Z,18.47
2023-05-10T09:29:09.494Z,18.46
2023-05-10T09:32:13.812Z,18.63
2023-05-10T09:35:22.662Z,18.86
2023-05-10T09:38:25.343Z,18.85
2023-05-10T09:41:29.102Z,18.83
2023-05-10T09:44:33.578Z,19.05
2023-05-10T09:47:37.122Z,19.16
2023-05-10T09:50:39.821Z,19.23
2023-05-10T09:53:42.625Z,19.42
2023-05-10T09:56:45.361Z,19.37
2023-05-10T09:59:48.395Z,19.46
2023-05-10T10:02:59.058Z,19.41
2023-05-10T10:06:01.976Z,19.38
2023-05-10T10:09:05.125Z,19.44
2023-05-10T10:12:07.888Z,19.47
2023-05-10T10:15:10.952Z,19.60
2023-05-10T10:18:15.724Z,19.55
2023-05-10T10:21:18.523Z,19.59
2023-05-10T10:24:21.290Z,19.53
2023-05-10T10:27:37.725Z,19.71
2023-05-10T10:30:44.684Z,19.63
2023-05-10T10:34:09.894Z,19.61
2023-05-10T10:37:12.668Z,19.59
2023-05-10T10:40:33.615Z,19.84
2023-05-10T10:43:37.652Z,20.16
2023-05-10T10:47:03.616Z,20.23
2023-05-10T10:50:09.178Z,20.14
2023-05-10T10:53:13.170Z,20.12
2023-05-10T10:56:16.713Z,20.29
2023-05-10T10:59:28.860Z,20.42
2023-05-10T11:02:46.887Z,20.30
2023-05-10T11:05:50.657Z,20.27
2023-05-10T11:08:53.740Z,20.30
2023-05-10T11:11:56.618Z,20.15
2023-05-10T11:14:59.876Z,20.15
2023-05-10T11:18:21.695Z,20.10
2023-05-10T11:21:24.656Z,19.83
2023-05-10T11:24:28.919Z,19.89
2023-05-10T11:27:34.102Z,19.95
2023-05-10T11:30:39.217Z,19.99
2023-05-10T11:33:50.980Z,20.07
2023-05-10T11:36:54.918Z,20.37
2023-05-10T11:39:57.650Z,20.61
2023-05-10T11:43:00.462Z,20.88
2023-05-10T11:46:03.918Z,20.67
2023-05-10T11:49:08.334Z,20.60
2023-05-10T11:52:12.424Z,20.40
2023-05-10T11:55:14.920Z,20.32
2023-05-10T11:58:19.307Z,20.19
2023-05-10T12:01:22.012Z,20.31
2023-05-10T12:04:25.135Z,20.27
2023-05-10T12:07:27.660Z,20.32
2023-05-10T12:10:30.500Z,20.33
2023-05-10T12:13:32.941Z,20.57
2023-05-10T12:16:36.979Z,20.44
2023-05-10T12:19:39.746Z,20.31
2023-05-10T12:22:48.660Z,20.09
2023-05-10T12:25:52.419Z,20.06
2023-05-10T12:28:56.055Z,19.99
2023-05-10T12:32:00.499Z,20.02
2023-05-10T12:35:04.924Z,19.94
2023-05-10T12:38:26.091Z,20.10
2023-05-10T12:41:28.936Z,20.15
2023-05-10T12:44:31.437Z,20.26
2023-05-10T12:47:34.405Z,20.16
2023-05-10T12:50:36.907Z,20.19
2023-05-10T12:53:41.675Z,20.27
2023-05-10T12:56:46.813Z,20.30
2023-05-10T12:59:49.776Z,20.33
2023-05-10T13:02:52.380Z,20.42
2023-05-10T13:05:55.144Z,20.50
2023-05-10T13:08:58.626Z,20.32
2023-05-10T13:12:01.501Z,20.18
2023-05-10T13:15:04.558Z,20.09
2023-05-10T13:18:07.351Z,20.17
2023-05-10T13:21:09.929Z,20.39
2023-05-10T13:24:14.769Z,20.30
2023-05-10T13:27:17.229Z,20.46
2023-05-10T13:30:20.031Z,20.72
2023-05-10T13:33:22.504Z,20.73
2023-05-10T13:36:25.609Z,20.67
2023-05-10T13:39:28.193Z,20.76
2023-05-10T13:42:32.686Z,20.80
2023-05-10T13:45:35.236Z,20.81
2023-05-10T13:48:39.186Z,20.87
2023-05-10T13:51:41.803Z,20.74
2023-05-10T13:54:44.603Z,20.48
2023-05-10T13:57:47.324Z,20.48
2023-05-10T14:00:50.116Z,20.39
2023-05-10T14:03:53.033Z,20.44
2023-05-10T14:06:58.008Z,20.39
2023-05-10T14:10:01.332Z,20.43
2023-05-10T14:13:04.267Z,20.40
2023-05-10T14:16:07.422Z,20.60
2023-05-10T14:19:10.353Z,20.68
2023-05-10T14:22:13.163Z,20.82
2023-05-10T14:25:15.908Z,20.88
2023-05-10T14:28:19.566Z,20.94
2023-05-10T14:31:22.158Z,21.18
2023-05-10T14:34:25.014Z,21.22
2023-05-10T14:37:27.819Z,21.08
2023-05-10T14:40:31.205Z,21.04
2023-05-10T14:43:33.877Z,21.05
2023-05-10T14:46:42.907Z,20.85
2023-05-10T14:49:45.471Z,20.82
2023-05-10T14:52:48.591Z,21.12
2023-05-10T14:55:51.136Z,21.12
2023-05-10T14:58:54.036Z,21.21
2023-05-10T15:01:57.082Z,21.03
2023-05-10T15:05:00.335Z,20.98
2023-05-10T15:08:03.747Z,21.20
2023-05-10T15:11:06.628Z,21.33
2023-05-10T15:14:09.114Z,21.36
2023-05-10T15:17:12.607Z,21.22
2023-05-10T15:20:15.161Z,21.28
2023-05-10T15:23:18.060Z,21.32
2023-05-10T15:26:20.550Z,21.25
2023-05-10T15:29:23.579Z,21.15
2023-05-10T15:32:26.276Z,21.26
2023-05-10T15:35:29.184Z,21.37
2023-05-10T15:38:32.494Z,21.34
2023-05-10T15:41:35.338Z,21.31
2023-05-10T15:44:39.459Z,21.11
2023-05-10T15:47:42.297Z,21.12
2023-05-10T15:50:44.944Z,21.10
2023-05-10T15:54:05.330Z,21.08
2023-05-10T15:57:08.707Z,21.03
2023-05-10T16:00:12.778Z,20.83
2023-05-10T16:03:15.215Z,20.72
2023-05-10T16:06:18.173Z,20.57
2023-05-10T16:09:21.709Z,20.50
2023-05-10T16:12:24.732Z,20.40
2023-05-10T16:15:27.534Z,20.29
2023-05-10T16:18:30.575Z,20.16
2023-05-10T16:21:33.502Z,19.90
2023-05-10T16:24:36.727Z,19.78
2023-05-10T16:27:39.466Z,19.56
2023-05-10T16:30:42.415Z,19.55
2023-05-10T16:33:45.103Z,19.46
2023-05-10T16:36:47.921Z,19.44
2023-05-10T16:39:50.548Z,19.43
2023-05-10T16:42:53.403Z,19.36
2023-05-10T16:45:56.125Z,19.26
2023-05-10T16:49:00.281Z,19.08
2023-05-10T16:52:03.283Z,19.16
2023-05-10T16:55:06.631Z,19.14
2023-05-10T16:58:09.121Z,19.11
2023-05-10T17:01:12.168Z,19.00
2023-05-10T17:04:15.302Z,18.93
2023-05-10T17:07:19.068Z,18.87
2023-05-10T17:10:21.854Z,18.69
2023-05-10T17:13:24.727Z,18.66
2023-05-10T17:16:27.440Z,18.64
2023-05-10T17:19:30.756Z,18.54
2023-05-10T17:22:33.298Z,18.48
2023-05-10T17:25:36.858Z,18.40
2023-05-10T17:28:39.312Z,18.37
2023-05-10T17:31:42.478Z,18.28
2023-05-10T17:34:45.074Z,18.28
2023-05-10T17:37:48.028Z,18.15
2023-05-10T17:40:51.620Z,18.12
2023-05-10T17:43:54.801Z,17.95
2023-05-10T17:46:57.688Z,17.89
2023-05-10T17:50:00.777Z,17.79
2023-05-10T17:53:03.833Z,17.79
2023-05-10T17:56:07.068Z,17.69
2023-05-10T17:59:09.623Z,17.66
2023-05-10T18:02:13.501Z,17.50
2023-05-10T18:05:19.210Z,17.50
2023-05-10T18:08:27.268Z,17.41
2023-05-10T18:11:30.434Z,17.34
2023-05-10T18:14:40.485Z,17.25
2023-05-10T18:17:44.346Z,17.22
2023-05-10T18:20:47.379Z,17.14
2023-05-10T18:23:50.664Z,17.08
2023-05-10T18:26:53.798Z,17.00
2023-05-10T18:29:57.086Z,16.92
2023-05-10T18:32:59.995Z,16.86
2023-05-10T18:36:04.389Z,16.80
2023-05-10T18:39:07.113Z,16.77
2023-05-10T18:42:10.665Z,16.68
2023-05-10T18:45:13.769Z,16.60
2023-05-10T18:48:17.253Z,16.55
2023-05-10T18:51:22.945Z,16.51
2023-05-10T18:54:26.855Z,16.43
2023-05-10T18:57:30.411Z,16.35
2023-05-10T19:00:34.823Z,16.33
2023-05-10T19:03:37.684Z,16.32
2023-05-10T19:06:42.037Z,16.22
2023-05-10T19:09:44.959Z,16.22
2023-05-10T19:12:48.114Z,16.20
2023-05-10T19:16:10.096Z,16.17
2023-05-10T19:19:14.414Z,16.18
2023-05-10T19:22:19.797Z,16.15
2023-05-10T19:25:29.672Z,16.14
2023-05-10T19:28:32.332Z,16.11
2023-05-10T19:31:35.400Z,16.04
2023-05-10T19:34:38.046Z,16.08
2023-05-10T19:37:46.066Z,16.07
2023-05-10T19:40:59.288Z,15.96
2023-05-10T19:44:05.481Z,15.98
2023-05-10T19:47:09.308Z,15.93
2023-05-10T19:50:12.691Z,15.88
2023-05-10T19:53:15.675Z,15.94
2023-05-10T19:56:18.852Z,15.91
2023-05-10T19:59:21.522Z,15.85
2023-05-10T20:02:24.626Z,15.90
2023-05-10T20:05:27.511Z,15.78
2023-05-10T20:08:31.072Z,15.81
2023-05-10T20:11:34.141Z,15.76
2023-05-10T20:14:36.884Z,15.71
2023-05-10T20:17:39.874Z,15.72
2023-05-10T20:20:43.197Z,15.57
2023-05-10T20:23:46.015Z,15.61
2023-05-10T20:26:48.528Z,15.58
2023-05-10T20:29:51.697Z,15.56
2023-05-10T20:32:54.684Z,15.60
2023-05-10T20:35:57.530Z,15.57
2023-05-10T20:38:59.960Z,15.56
2023-05-10T20:42:03.798Z,15.59
2023-05-10T20:45:07.213Z,15.55
2023-05-10T20:48:10.062Z,15.50
2023-05-10T20:51:12.514Z,15.50
2023-05-10T20:54:15.318Z,15.49
2023-05-10T20:57:17.847Z,15.49
2023-05-10T21:00:21.019Z,15.47
2023-05-10T21:03:23.574Z,15.42
2023-05-10T21:06:26.545Z,15.40
2023-05-10T21:09:29.091Z,15.39
2023-05-10T21:12:31.998Z,15.36
2023-05-10T21:15:34.470Z,15.36
2023-05-10T21:18:37.297Z,15.34
2023-05-10T21:21:39.853Z,15.31
2023-05-10T21:24:42.721Z,15.26
2023-05-10T21:27:45.915Z,15.24
2023-05-10T21:30:48.712Z,15.19
2023-05-10T21:33:51.503Z,15.17
2023-05-10T21:36:54.954Z,15.19
2023-05-10T21:39:57.430Z,15.14
2023-05-10T21:43:00.225Z,15.12
2023-05-10T21:46:02.976Z,15.13
2023-05-10T21:49:05.838Z,15.11
2023-05-10T21:52:08.344Z,15.10
2023-05-10T21:55:11.211Z,15.09
2023-05-10T21:58:13.676Z,15.04
2023-05-10T22:01:17.999Z,15.04
2023-05-10T22:04:20.763Z,15.03
2023-05-10T22:07:23.267Z,14.97
2023-05-10T22:10:26.032Z,14.96
2023-05-10T22:13:28.719Z,15.00
2023-05-10T22:16:31.652Z,14.94
2023-05-10T22:19:34.134Z,14.78
2023-05-10T22:22:36.982Z,14.81
2023-05-10T22:25:39.477Z,14.79
2023-05-10T22:28:42.303Z,14.75
2023-05-10T22:31:44.857Z,14.72
2023-05-10T22:34:47.609Z,14.69
2023-05-10T22:37:50.176Z,14.61
2023-05-10T22:40:53.039Z,14.58
2023-05-10T22:43:55.605Z,14.54
2023-05-10T22:46:58.460Z,14.48
2023-05-10T22:50:03.476Z,14.42
2023-05-10T22:53:07.277Z,14.38
2023-05-10T22:56:09.821Z,14.38
2023-05-10T22:59:12.702Z,14.35
2023-05-10T23:02:15.411Z,14.35
2023-05-10T23:05:18.510Z,14.31
2023-05-10T23:08:21.258Z,14.32
2023-05-10T23:11:24.182Z,14.32
2023-05-10T23:14:26.772Z,14.32
2023-05-10T23:17:30.041Z,14.36
2023-05-10T23:20:33.087Z,14.35
2023-05-10T23:23:36.113Z,14.36
2023-05-10T23:26:38.736Z,14.36
2023-05-10T23:29:41.948Z,14.36
2023-05-10T23:32:44.551Z,14.30
2023-05-10T23:35:47.426Z,14.28
2023-05-10T23:38:49.983Z,14.32
2023-05-10T23:41:52.852Z,14.25
2023-05-10T23:44:55.339Z,14.25
2023-05-10T23:47:58.257Z,14.28
2023-05-10T23:51:00.985Z,14.24
2023-05-10T23:54:03.758Z,14.25
2023-05-10T23:57:06.303Z,14.27
